Allerton, New York
Current Conditions -  °F | °C
As of 11:13 AM on Thursday 27 Nov 2014 (Local Time) from KLGA Reporting Station
Light Snow Light Snow  
Wind Chill: -2°   Ceiling: 700
Heat Index:   Visibility: 4mi
Dew Point:   Wind: 8mph
Humidity: 87%   Direction: 310°NW
Pressure: 30"   Gusts: NA
Location:  40.8778°N, 73.8721°W
Report Text: KLGA 271613Z 31007KT 4SM -SN BR BKN007 BKN020 OVC030 02/00 A3000 RMK AO2 P0000
Loading
Personal Weather Stations






























Interactive Weather Map New forecast layout! Learn more

10-Day Weather Forecast

Advertisements
Track Severe Weather on mobile